sensor_id;sensor_type;location;lat;lon;timestamp;pressure;altitude;pressure_sealevel;temperature
75773;BMP280;64381;0.000;0.000;2022-11-06T00:02:13;95799.28;;;22.35
75773;BMP280;64381;0.000;0.000;2022-11-06T00:04:38;95801.16;;;22.33
75773;BMP280;64381;0.000;0.000;2022-11-06T00:07:03;95805.81;;;22.30
75773;BMP280;64381;0.000;0.000;2022-11-06T00:09:29;95804.19;;;22.27
75773;BMP280;64381;0.000;0.000;2022-11-06T00:11:54;95812.53;;;22.27
75773;BMP280;64381;0.000;0.000;2022-11-06T00:14:19;95806.97;;;22.27
75773;BMP280;64381;0.000;0.000;2022-11-06T00:16:45;95806.78;;;22.25
75773;BMP280;64381;0.000;0.000;2022-11-06T00:19:11;95809.97;;;22.21
75773;BMP280;64381;0.000;0.000;2022-11-06T00:21:37;95808.50;;;22.20
75773;BMP280;64381;0.000;0.000;2022-11-06T00:24:04;95811.66;;;22.17
75773;BMP280;64381;0.000;0.000;2022-11-06T00:26:31;95814.31;;;22.15
75773;BMP280;64381;0.000;0.000;2022-11-06T00:28:57;95812.81;;;22.14
75773;BMP280;64381;0.000;0.000;2022-11-06T00:31:24;95812.66;;;22.12
75773;BMP280;64381;0.000;0.000;2022-11-06T00:33:51;95806.91;;;22.10
75773;BMP280;64381;0.000;0.000;2022-11-06T00:36:20;95798.25;;;22.06
75773;BMP280;64381;0.000;0.000;2022-11-06T00:38:45;95798.09;;;22.04
75773;BMP280;64381;0.000;0.000;2022-11-06T00:41:13;95794.03;;;22.05
75773;BMP280;64381;0.000;0.000;2022-11-06T00:43:39;95793.81;;;22.03
75773;BMP280;64381;0.000;0.000;2022-11-06T00:46:07;95797.03;;;21.99
75773;BMP280;64381;0.000;0.000;2022-11-06T00:48:33;95790.72;;;21.99
75773;BMP280;64381;0.000;0.000;2022-11-06T00:53:31;95797.97;;;21.94
75773;BMP280;64381;0.000;0.000;2022-11-06T00:56:07;95807.44;;;21.91
75773;BMP280;64381;0.000;0.000;2022-11-06T00:58:33;95794.13;;;21.90
75773;BMP280;64381;0.000;0.000;2022-11-06T01:01:13;95802.47;;;21.90
75773;BMP280;64381;0.000;0.000;2022-11-06T01:03:40;95802.31;;;21.88
75773;BMP280;64381;0.000;0.000;2022-11-06T01:06:08;95801.56;;;21.87
75773;BMP280;64381;0.000;0.000;2022-11-06T01:08:34;95798.63;;;21.85
75773;BMP280;64381;0.000;0.000;2022-11-06T01:11:05;95807.66;;;21.86
75773;BMP280;64381;0.000;0.000;2022-11-06T01:13:30;95800.66;;;21.85
75773;BMP280;64381;0.000;0.000;2022-11-06T01:15:56;95802.53;;;21.82
75773;BMP280;64381;0.000;0.000;2022-11-06T01:18:21;95805.31;;;21.82
75773;BMP280;64381;0.000;0.000;2022-11-06T01:20:46;95793.28;;;21.80
75773;BMP280;64381;0.000;0.000;2022-11-06T01:23:11;95797.34;;;21.79
75773;BMP280;64381;0.000;0.000;2022-11-06T01:25:36;95801.41;;;21.78
75773;BMP280;64381;0.000;0.000;2022-11-06T01:28:02;95796.47;;;21.76
75773;BMP280;64381;0.000;0.000;2022-11-06T01:30:27;95794.44;;;21.77
75773;BMP280;64381;0.000;0.000;2022-11-06T01:32:52;95792.94;;;21.76
75773;BMP280;64381;0.000;0.000;2022-11-06T01:35:18;95790.72;;;21.74
75773;BMP280;64381;0.000;0.000;2022-11-06T01:37:43;95789.97;;;21.74
75773;BMP280;64381;0.000;0.000;2022-11-06T01:40:08;95792.94;;;21.76
75773;BMP280;64381;0.000;0.000;2022-11-06T01:42:34;95779.06;;;21.76
75773;BMP280;64381;0.000;0.000;2022-11-06T01:47:43;95771.13;;;21.72
75773;BMP280;64381;0.000;0.000;2022-11-06T01:50:10;95774.66;;;21.73
75773;BMP280;64381;0.000;0.000;2022-11-06T01:52:37;95768.34;;;21.72
75773;BMP280;64381;0.000;0.000;2022-11-06T01:55:16;95755.94;;;21.73
75773;BMP280;64381;0.000;0.000;2022-11-06T01:57:43;95763.38;;;21.71
75773;BMP280;64381;0.000;0.000;2022-11-06T02:00:09;95772.41;;;21.71
75773;BMP280;64381;0.000;0.000;2022-11-06T02:02:35;95771.69;;;21.71
75773;BMP280;64381;0.000;0.000;2022-11-06T02:05:01;95761.91;;;21.70
75773;BMP280;64381;0.000;0.000;2022-11-06T02:07:26;95763.00;;;21.67
75773;BMP280;64381;0.000;0.000;2022-11-06T02:09:51;95758.19;;;21.67
75773;BMP280;64381;0.000;0.000;2022-11-06T02:17:56;95747.09;;;21.67
75773;BMP280;64381;0.000;0.000;2022-11-06T02:23:28;95745.63;;;21.66
75773;BMP280;64381;0.000;0.000;2022-11-06T02:28:38;95736.56;;;21.66
75773;BMP280;64381;0.000;0.000;2022-11-06T02:31:08;95732.31;;;21.64
75773;BMP280;64381;0.000;0.000;2022-11-06T02:33:39;95731.59;;;21.64
75773;BMP280;64381;0.000;0.000;2022-11-06T02:36:10;95730.84;;;21.63
75773;BMP280;64381;0.000;0.000;2022-11-06T02:38:40;95728.06;;;21.63
75773;BMP280;64381;0.000;0.000;2022-11-06T02:41:12;95732.31;;;21.64
75773;BMP280;64381;0.000;0.000;2022-11-06T02:43:43;95720.28;;;21.62
75773;BMP280;64381;0.000;0.000;2022-11-06T02:46:33;95721.03;;;21.62
75773;BMP280;64381;0.000;0.000;2022-11-06T02:49:07;95716.06;;;21.61
75773;BMP280;64381;0.000;0.000;2022-11-06T02:51:36;95716.81;;;21.61
75773;BMP280;64381;0.000;0.000;2022-11-06T02:54:04;95723.81;;;21.62
75773;BMP280;64381;0.000;0.000;2022-11-06T02:56:33;95721.78;;;21.63
75773;BMP280;64381;0.000;0.000;2022-11-06T02:59:16;95714.19;;;21.63
75773;BMP280;64381;0.000;0.000;2022-11-06T03:01:51;95713.28;;;21.61
75773;BMP280;64381;0.000;0.000;2022-11-06T03:04:21;95713.28;;;21.61
75773;BMP280;64381;0.000;0.000;2022-11-06T03:07:16;95715.31;;;21.60
75773;BMP280;64381;0.000;0.000;2022-11-06T03:09:44;95719.25;;;21.57
75773;BMP280;64381;0.000;0.000;2022-11-06T03:12:28;95724.19;;;21.59
75773;BMP280;64381;0.000;0.000;2022-11-06T03:18:23;95708.16;;;21.57
75773;BMP280;64381;0.000;0.000;2022-11-06T03:24:13;95722.03;;;21.57
75773;BMP280;64381;0.000;0.000;2022-11-06T03:26:46;95705.38;;;21.57
75773;BMP280;64381;0.000;0.000;2022-11-06T03:29:19;95718.66;;;21.59
75773;BMP280;64381;0.000;0.000;2022-11-06T03:31:50;95699.81;;;21.57
75773;BMP280;64381;0.000;0.000;2022-11-06T03:34:24;95706.66;;;21.56
75773;BMP280;64381;0.000;0.000;2022-11-06T03:37:00;95708.16;;;21.57
75773;BMP280;64381;0.000;0.000;2022-11-06T03:39:30;95708.16;;;21.57
75773;BMP280;64381;0.000;0.000;2022-11-06T03:42:09;95715.13;;;21.58
75773;BMP280;64381;0.000;0.000;2022-11-06T03:44:39;95719.25;;;21.57
75773;BMP280;64381;0.000;0.000;2022-11-06T03:47:11;95722.72;;;21.58
75773;BMP280;64381;0.000;0.000;2022-11-06T03:49:50;95724.81;;;21.57
75773;BMP280;64381;0.000;0.000;2022-11-06T03:52:23;95721.09;;;21.55
75773;BMP280;64381;0.000;0.000;2022-11-06T03:55:02;95720.53;;;21.56
75773;BMP280;64381;0.000;0.000;2022-11-06T03:57:36;95720.53;;;21.56
75773;BMP280;64381;0.000;0.000;2022-11-06T04:00:05;95719.06;;;21.55
75773;BMP280;64381;0.000;0.000;2022-11-06T04:02:31;95721.09;;;21.55
75773;BMP280;64381;0.000;0.000;2022-11-06T04:05:02;95713.50;;;21.55
75773;BMP280;64381;0.000;0.000;2022-11-06T04:07:42;95717.03;;;21.56
75773;BMP280;64381;0.000;0.000;2022-11-06T04:10:10;95716.88;;;21.54
75773;BMP280;64381;0.000;0.000;2022-11-06T04:12:37;95712.22;;;21.56
75773;BMP280;64381;0.000;0.000;2022-11-06T04:15:03;95719.81;;;21.56
75773;BMP280;64381;0.000;0.000;2022-11-06T04:17:29;95725.91;;;21.54
75773;BMP280;64381;0.000;0.000;2022-11-06T04:19:57;95712.78;;;21.55
75773;BMP280;64381;0.000;0.000;2022-11-06T04:25:38;95712.03;;;21.54
75773;BMP280;64381;0.000;0.000;2022-11-06T04:31:12;95705.75;;;21.54
75773;BMP280;64381;0.000;0.000;2022-11-06T04:36:42;95706.31;;;21.52
75773;BMP280;64381;0.000;0.000;2022-11-06T04:39:23;95709.84;;;21.53
75773;BMP280;64381;0.000;0.000;2022-11-06T04:42:03;95709.66;;;21.51
75773;BMP280;64381;0.000;0.000;2022-11-06T04:47:03;95700.75;;;21.52
75773;BMP280;64381;0.000;0.000;2022-11-06T04:49:31;95695.22;;;21.52
75773;BMP280;64381;0.000;0.000;2022-11-06T04:51:59;95686.16;;;21.52
75773;BMP280;64381;0.000;0.000;2022-11-06T04:54:25;95684.09;;;21.52
75773;BMP280;64381;0.000;0.000;2022-11-06T04:56:50;95687.47;;;21.51
75773;BMP280;64381;0.000;0.000;2022-11-06T04:59:16;95687.63;;;21.53
75773;BMP280;64381;0.000;0.000;2022-11-06T05:01:43;95684.69;;;21.51
75773;BMP280;64381;0.000;0.000;2022-11-06T05:04:09;95679.13;;;21.51
75773;BMP280;64381;0.000;0.000;2022-11-06T05:06:35;95675.03;;;21.52
75773;BMP280;64381;0.000;0.000;2022-11-06T05:09:00;95674.31;;;21.51
75773;BMP280;64381;0.000;0.000;2022-11-06T05:11:25;95666.56;;;21.50
75773;BMP280;64381;0.000;0.000;2022-11-06T05:13:50;95672.09;;;21.50
75773;BMP280;64381;0.000;0.000;2022-11-06T05:16:16;95672.69;;;21.48
75773;BMP280;64381;0.000;0.000;2022-11-06T05:18:41;95675.47;;;21.48
75773;BMP280;64381;0.000;0.000;2022-11-06T05:21:06;95670.44;;;21.47
75773;BMP280;64381;0.000;0.000;2022-11-06T05:23:31;95676.94;;;21.49
75773;BMP280;64381;0.000;0.000;2022-11-06T05:25:56;95664.91;;;21.47
75773;BMP280;64381;0.000;0.000;2022-11-06T05:28:22;95667.69;;;21.47
75773;BMP280;64381;0.000;0.000;2022-11-06T05:30:47;95669.91;;;21.48
75773;BMP280;64381;0.000;0.000;2022-11-06T05:33:12;95671.19;;;21.47
75773;BMP280;64381;0.000;0.000;2022-11-06T05:35:37;95669.00;;;21.46
75773;BMP280;64381;0.000;0.000;2022-11-06T05:38:03;95665.66;;;21.47
75773;BMP280;64381;0.000;0.000;2022-11-06T05:40:28;95664.78;;;21.45
75773;BMP280;64381;0.000;0.000;2022-11-06T05:42:54;95667.53;;;21.45
75773;BMP280;64381;0.000;0.000;2022-11-06T05:45:19;95655.13;;;21.46
75773;BMP280;64381;0.000;0.000;2022-11-06T05:47:44;95655.13;;;21.46
75773;BMP280;64381;0.000;0.000;2022-11-06T05:50:09;95657.72;;;21.44
75773;BMP280;64381;0.000;0.000;2022-11-06T05:52:35;95664.03;;;21.44
75773;BMP280;64381;0.000;0.000;2022-11-06T05:55:01;95666.81;;;21.44
75773;BMP280;64381;0.000;0.000;2022-11-06T05:57:26;95665.47;;;21.45
75773;BMP280;64381;0.000;0.000;2022-11-06T05:59:51;95657.00;;;21.43
75773;BMP280;64381;0.000;0.000;2022-11-06T06:02:16;95662.00;;;21.45
75773;BMP280;64381;0.000;0.000;2022-11-06T06:04:42;95652.34;;;21.46
75773;BMP280;64381;0.000;0.000;2022-11-06T06:07:07;95655.84;;;21.46
75773;BMP280;64381;0.000;0.000;2022-11-06T06:09:32;95653.06;;;21.46
75773;BMP280;64381;0.000;0.000;2022-11-06T06:11:57;95655.13;;;21.46
75773;BMP280;64381;0.000;0.000;2022-11-06T06:14:23;95648.13;;;21.45
75773;BMP280;64381;0.000;0.000;2022-11-06T06:16:48;95640.50;;;21.45
75773;BMP280;64381;0.000;0.000;2022-11-06T06:19:13;95641.09;;;21.44
75773;BMP280;64381;0.000;0.000;2022-11-06T06:21:39;95635.53;;;21.44
75773;BMP280;64381;0.000;0.000;2022-11-06T06:24:05;95634.03;;;21.43
75773;BMP280;64381;0.000;0.000;2022-11-06T06:26:30;95636.28;;;21.44
75773;BMP280;64381;0.000;0.000;2022-11-06T06:28:56;95628.69;;;21.45
75773;BMP280;64381;0.000;0.000;2022-11-06T06:31:21;95633.31;;;21.42
75773;BMP280;64381;0.000;0.000;2022-11-06T06:33:46;95637.56;;;21.43
75773;BMP280;64381;0.000;0.000;2022-11-06T06:36:12;95632.00;;;21.43
75773;BMP280;64381;0.000;0.000;2022-11-06T06:38:37;95626.47;;;21.43
75773;BMP280;64381;0.000;0.000;2022-11-06T06:41:04;95621.47;;;21.42
75773;BMP280;64381;0.000;0.000;2022-11-06T06:43:30;95622.94;;;21.43
75773;BMP280;64381;0.000;0.000;2022-11-06T06:45:59;95619.63;;;21.44
75773;BMP280;64381;0.000;0.000;2022-11-06T06:48:25;95624.44;;;21.44
75773;BMP280;64381;0.000;0.000;2022-11-06T06:50:50;95621.47;;;21.42
75773;BMP280;64381;0.000;0.000;2022-11-06T06:53:16;95612.44;;;21.41
75773;BMP280;64381;0.000;0.000;2022-11-06T06:55:41;95618.69;;;21.42
75773;BMP280;64381;0.000;0.000;2022-11-06T06:58:07;95619.44;;;21.42
75773;BMP280;64381;0.000;0.000;2022-11-06T07:00:32;95621.66;;;21.44
75773;BMP280;64381;0.000;0.000;2022-11-06T07:02:57;95615.91;;;21.42
75773;BMP280;64381;0.000;0.000;2022-11-06T07:05:23;95615.91;;;21.42
75773;BMP280;64381;0.000;0.000;2022-11-06T07:07:48;95620.75;;;21.41
75773;BMP280;64381;0.000;0.000;2022-11-06T07:10:15;95617.41;;;21.43
75773;BMP280;64381;0.000;0.000;2022-11-06T07:12:40;95614.47;;;21.41
75773;BMP280;64381;0.000;0.000;2022-11-06T07:15:06;95612.44;;;21.41
75773;BMP280;64381;0.000;0.000;2022-11-06T07:17:32;95616.66;;;21.42
75773;BMP280;64381;0.000;0.000;2022-11-06T07:19:57;95613.13;;;21.42
75773;BMP280;64381;0.000;0.000;2022-11-06T07:22:26;95612.44;;;21.41
75773;BMP280;64381;0.000;0.000;2022-11-06T07:24:51;95620.56;;;21.39
75773;BMP280;64381;0.000;0.000;2022-11-06T07:27:16;95621.47;;;21.42
75773;BMP280;64381;0.000;0.000;2022-11-06T07:29:41;95617.97;;;21.41
75773;BMP280;64381;0.000;0.000;2022-11-06T07:32:07;95616.50;;;21.40
75773;BMP280;64381;0.000;0.000;2022-11-06T07:34:33;95624.25;;;21.42
75773;BMP280;64381;0.000;0.000;2022-11-06T07:36:58;95625.56;;;21.41
75773;BMP280;64381;0.000;0.000;2022-11-06T07:39:23;95625.56;;;21.41
75773;BMP280;64381;0.000;0.000;2022-11-06T07:41:49;95635.19;;;21.40
75773;BMP280;64381;0.000;0.000;2022-11-06T07:44:14;95626.13;;;21.39
75773;BMP280;64381;0.000;0.000;2022-11-06T07:46:39;95624.81;;;21.40
75773;BMP280;64381;0.000;0.000;2022-11-06T07:49:04;95619.28;;;21.40
75773;BMP280;64381;0.000;0.000;2022-11-06T07:51:29;95614.47;;;21.41
75773;BMP280;64381;0.000;0.000;2022-11-06T07:53:55;95606.13;;;21.41
75773;BMP280;64381;0.000;0.000;2022-11-06T07:56:20;95612.25;;;21.39
75773;BMP280;64381;0.000;0.000;2022-11-06T07:58:45;95615.75;;;21.40
75773;BMP280;64381;0.000;0.000;2022-11-06T08:01:13;95610.22;;;21.40
75773;BMP280;64381;0.000;0.000;2022-11-06T08:03:39;95604.53;;;21.38
75773;BMP280;64381;0.000;0.000;2022-11-06T08:06:04;95600.44;;;21.39
75773;BMP280;64381;0.000;0.000;2022-11-06T08:08:30;95596.19;;;21.38
75773;BMP280;64381;0.000;0.000;2022-11-06T08:10:55;95591.34;;;21.38
75773;BMP280;64381;0.000;0.000;2022-11-06T08:13:20;95589.50;;;21.41
75773;BMP280;64381;0.000;0.000;2022-11-06T08:15:45;95592.09;;;21.39
75773;BMP280;64381;0.000;0.000;2022-11-06T08:18:11;95582.31;;;21.38
75773;BMP280;64381;0.000;0.000;2022-11-06T08:20:37;95571.94;;;21.38
75773;BMP280;64381;0.000;0.000;2022-11-06T08:23:06;95572.09;;;21.40
75773;BMP280;64381;0.000;0.000;2022-11-06T08:25:32;95566.38;;;21.38
75773;BMP280;64381;0.000;0.000;2022-11-06T08:27:58;95565.06;;;21.39
75773;BMP280;64381;0.000;0.000;2022-11-06T08:30:25;95561.56;;;21.39
75773;BMP280;64381;0.000;0.000;2022-11-06T08:32:51;95556.03;;;21.39
75773;BMP280;64381;0.000;0.000;2022-11-06T08:35:17;95562.91;;;21.38
75773;BMP280;64381;0.000;0.000;2022-11-06T08:37:42;95564.94;;;21.37
75773;BMP280;64381;0.000;0.000;2022-11-06T08:40:08;95564.94;;;21.37
75773;BMP280;64381;0.000;0.000;2022-11-06T08:42:34;95562.28;;;21.39
75773;BMP280;64381;0.000;0.000;2022-11-06T08:44:59;95556.03;;;21.39
75773;BMP280;64381;0.000;0.000;2022-11-06T08:47:24;95546.25;;;21.38
75773;BMP280;64381;0.000;0.000;2022-11-06T08:49:49;95549.72;;;21.38
75773;BMP280;64381;0.000;0.000;2022-11-06T08:52:15;95542.88;;;21.39
75773;BMP280;64381;0.000;0.000;2022-11-06T08:54:40;95548.41;;;21.39
75773;BMP280;64381;0.000;0.000;2022-11-06T08:57:05;95550.47;;;21.39
75773;BMP280;64381;0.000;0.000;2022-11-06T08:59:30;95546.25;;;21.38
75773;BMP280;64381;0.000;0.000;2022-11-06T09:01:56;95534.41;;;21.37
75773;BMP280;64381;0.000;0.000;2022-11-06T09:04:21;95538.63;;;21.38
75773;BMP280;64381;0.000;0.000;2022-11-06T09:06:47;95531.06;;;21.39
75773;BMP280;64381;0.000;0.000;2022-11-06T09:09:12;95529.00;;;21.39
75773;BMP280;64381;0.000;0.000;2022-11-06T09:11:37;95520.66;;;21.39
75773;BMP280;64381;0.000;0.000;2022-11-06T09:14:02;95519.22;;;21.38
75773;BMP280;64381;0.000;0.000;2022-11-06T09:16:28;95514.25;;;21.37
75773;BMP280;64381;0.000;0.000;2022-11-06T09:18:54;95509.44;;;21.37
75773;BMP280;64381;0.000;0.000;2022-11-06T09:21:20;95512.94;;;21.38
75773;BMP280;64381;0.000;0.000;2022-11-06T09:23:45;95516.28;;;21.36
75773;BMP280;64381;0.000;0.000;2022-11-06T09:26:10;95508.69;;;21.37
75773;BMP280;64381;0.000;0.000;2022-11-06T09:28:35;95507.94;;;21.36
75773;BMP280;64381;0.000;0.000;2022-11-06T09:31:01;95502.97;;;21.35
75773;BMP280;64381;0.000;0.000;2022-11-06T09:33:26;95495.38;;;21.35
75773;BMP280;64381;0.000;0.000;2022-11-06T09:35:51;95485.56;;;21.34
75773;BMP280;64381;0.000;0.000;2022-11-06T09:38:17;95479.47;;;21.36
75773;BMP280;64381;0.000;0.000;2022-11-06T09:46:03;95453.75;;;21.35
75773;BMP280;64381;0.000;0.000;2022-11-06T09:48:35;95448.22;;;21.35
75773;BMP280;64381;0.000;0.000;2022-11-06T09:51:20;95450.97;;;21.35
75773;BMP280;64381;0.000;0.000;2022-11-06T09:56:23;95446.16;;;21.36
75773;BMP280;64381;0.000;0.000;2022-11-06T09:58:51;95435.63;;;21.34
75773;BMP280;64381;0.000;0.000;2022-11-06T10:01:20;95443.06;;;21.15
75773;BMP280;64381;0.000;0.000;2022-11-06T10:03:53;95439.97;;;20.93
75773;BMP280;64381;0.000;0.000;2022-11-06T10:06:21;95433.41;;;20.81
75773;BMP280;64381;0.000;0.000;2022-11-06T10:08:47;95429.00;;;20.78
75773;BMP280;64381;0.000;0.000;2022-11-06T10:11:29;95432.59;;;20.71
75773;BMP280;64381;0.000;0.000;2022-11-06T10:22:41;95403.03;;;20.49
75773;BMP280;64381;0.000;0.000;2022-11-06T10:25:17;95389.03;;;20.47
75773;BMP280;64381;0.000;0.000;2022-11-06T10:27:55;95385.09;;;20.50
75773;BMP280;64381;0.000;0.000;2022-11-06T10:30:25;95378.47;;;20.46
75773;BMP280;64381;0.000;0.000;2022-11-06T10:33:17;95376.44;;;20.46
75773;BMP280;64381;0.000;0.000;2022-11-06T10:35:56;95370.59;;;20.42
75773;BMP280;64381;0.000;0.000;2022-11-06T10:38:28;95374.97;;;20.45
75773;BMP280;64381;0.000;0.000;2022-11-06T10:40:55;95365.78;;;20.43
75773;BMP280;64381;0.000;0.000;2022-11-06T10:43:42;95363.16;;;20.45
75773;BMP280;64381;0.000;0.000;2022-11-06T10:46:26;95364.47;;;20.44
75773;BMP280;64381;0.000;0.000;2022-11-06T10:49:02;95363.16;;;20.45
75773;BMP280;64381;0.000;0.000;2022-11-06T10:51:36;95360.25;;;20.43
75773;BMP280;64381;0.000;0.000;2022-11-06T10:54:41;95353.22;;;20.42
75773;BMP280;64381;0.000;0.000;2022-11-06T10:59:58;95328.91;;;20.32
75773;BMP280;64381;0.000;0.000;2022-11-06T11:04:52;95311.06;;;20.26
75773;BMP280;64381;0.000;0.000;2022-11-06T11:07:17;95325.47;;;20.24
75773;BMP280;64381;0.000;0.000;2022-11-06T11:09:42;95303.31;;;20.24
75773;BMP280;64381;0.000;0.000;2022-11-06T11:12:19;95293.19;;;20.19
75773;BMP280;64381;0.000;0.000;2022-11-06T11:15:05;95289.16;;;20.20
75773;BMP280;64381;0.000;0.000;2022-11-06T11:17:34;95287.53;;;20.17
75773;BMP280;64381;0.000;0.000;2022-11-06T11:19:59;95277.00;;;20.16
75773;BMP280;64381;0.000;0.000;2022-11-06T11:22:24;95266.66;;;20.16
75773;BMP280;64381;0.000;0.000;2022-11-06T11:27:24;95244.16;;;20.12
75773;BMP280;64381;0.000;0.000;2022-11-06T11:29:50;95243.44;;;20.12
75773;BMP280;64381;0.000;0.000;2022-11-06T11:32:17;95254.78;;;20.75
75773;BMP280;64381;0.000;0.000;2022-11-06T11:34:47;95255.72;;;21.57
75773;BMP280;64381;0.000;0.000;2022-11-06T11:37:27;95246.63;;;22.79
75773;BMP280;64381;0.000;0.000;2022-11-06T11:39:54;95235.84;;;23.64
75773;BMP280;64381;0.000;0.000;2022-11-06T11:42:29;95238.72;;;23.97
75773;BMP280;64381;0.000;0.000;2022-11-06T11:45:21;95249.53;;;24.02
75773;BMP280;64381;0.000;0.000;2022-11-06T11:47:48;95236.91;;;24.01
75773;BMP280;64381;0.000;0.000;2022-11-06T11:52:44;95226.00;;;24.15
75773;BMP280;64381;0.000;0.000;2022-11-06T11:55:15;95221.78;;;24.25
75773;BMP280;64381;0.000;0.000;2022-11-06T11:57:43;95227.13;;;24.21
75773;BMP280;64381;0.000;0.000;2022-11-06T12:00:15;95223.13;;;24.24
75773;BMP280;64381;0.000;0.000;2022-11-06T12:02:44;95208.38;;;24.33
75773;BMP280;64381;0.000;0.000;2022-11-06T12:05:13;95211.50;;;24.28
75773;BMP280;64381;0.000;0.000;2022-11-06T12:07:46;95203.56;;;24.46
75773;BMP280;64381;0.000;0.000;2022-11-06T12:10:38;95190.94;;;24.77
75773;BMP280;64381;0.000;0.000;2022-11-06T12:13:15;95193.03;;;24.88
75773;BMP280;64381;0.000;0.000;2022-11-06T12:15:55;95190.13;;;24.98
75773;BMP280;64381;0.000;0.000;2022-11-06T12:18:26;95187.34;;;24.98
75773;BMP280;64381;0.000;0.000;2022-11-06T12:21:05;95186.78;;;24.78
75773;BMP280;64381;0.000;0.000;2022-11-06T12:23:50;95188.28;;;24.91
75773;BMP280;64381;0.000;0.000;2022-11-06T12:28:50;95186.00;;;25.34
75773;BMP280;64381;0.000;0.000;2022-11-06T12:31:36;95184.41;;;24.96
75773;BMP280;64381;0.000;0.000;2022-11-06T12:34:09;95182.81;;;24.70
75773;BMP280;64381;0.000;0.000;2022-11-06T12:36:42;95183.63;;;24.61
75773;BMP280;64381;0.000;0.000;2022-11-06T12:39:13;95182.50;;;22.96
75773;BMP280;64381;0.000;0.000;2022-11-06T12:41:46;95172.78;;;22.28
75773;BMP280;64381;0.000;0.000;2022-11-06T12:44:13;95171.19;;;21.87
75773;BMP280;64381;0.000;0.000;2022-11-06T13:03:35;95159.47;;;20.87
75773;BMP280;64381;0.000;0.000;2022-11-06T13:06:12;95163.06;;;20.80
75773;BMP280;64381;0.000;0.000;2022-11-06T13:11:43;95175.25;;;20.68
75773;BMP280;64381;0.000;0.000;2022-11-06T13:14:18;95176.13;;;20.70
75773;BMP280;64381;0.000;0.000;2022-11-06T13:17:16;95181.91;;;20.65
75773;BMP280;64381;0.000;0.000;2022-11-06T13:22:59;95179.19;;;20.48
75773;BMP280;64381;0.000;0.000;2022-11-06T13:26:24;95170.88;;;20.48
75773;BMP280;64381;0.000;0.000;2022-11-06T13:28:36;95160.91;;;20.45
75773;BMP280;64381;0.000;0.000;2022-11-06T13:31:05;95134.22;;;20.40
75773;BMP280;64381;0.000;0.000;2022-11-06T13:33:36;95122.66;;;20.33
75773;BMP280;64381;0.000;0.000;2022-11-06T13:36:03;95105.47;;;20.35
75773;BMP280;64381;0.000;0.000;2022-11-06T13:38:36;95109.69;;;20.36
75773;BMP280;64381;0.000;0.000;2022-11-06T13:41:21;95120.63;;;20.34
75773;BMP280;64381;0.000;0.000;2022-11-06T13:43:51;95118.09;;;20.28
75773;BMP280;64381;0.000;0.000;2022-11-06T13:49:51;95106.06;;;20.16
75773;BMP280;64381;0.000;0.000;2022-11-06T14:05:48;95075.28;;;20.12
75773;BMP280;64381;0.000;0.000;2022-11-06T14:08:37;95071.75;;;20.12
75773;BMP280;64381;0.000;0.000;2022-11-06T14:11:10;95065.19;;;20.07
75773;BMP280;64381;0.000;0.000;2022-11-06T14:13:37;95065.03;;;20.05
75773;BMP280;64381;0.000;0.000;2022-11-06T14:16:24;95062.84;;;20.04
75773;BMP280;64381;0.000;0.000;2022-11-06T14:18:55;95059.88;;;20.02
75773;BMP280;64381;0.000;0.000;2022-11-06T14:26:54;95064.41;;;19.97
75773;BMP280;64381;0.000;0.000;2022-11-06T14:34:44;95064.97;;;19.96
75773;BMP280;64381;0.000;0.000;2022-11-06T14:44:57;95065.19;;;19.90
75773;BMP280;64381;0.000;0.000;2022-11-06T14:49:52;95071.63;;;19.93
75773;BMP280;64381;0.000;0.000;2022-11-06T14:52:18;95080.53;;;19.91
75773;BMP280;64381;0.000;0.000;2022-11-06T14:55:00;95081.81;;;19.90
75773;BMP280;64381;0.000;0.000;2022-11-06T14:57:40;95084.03;;;19.92
75773;BMP280;64381;0.000;0.000;2022-11-06T15:00:09;95070.19;;;19.92
75773;BMP280;64381;0.000;0.000;2022-11-06T15:02:36;95069.59;;;19.93
75773;BMP280;64381;0.000;0.000;2022-11-06T15:05:07;95073.09;;;19.94
75773;BMP280;64381;0.000;0.000;2022-11-06T15:10:02;95058.88;;;19.97
75773;BMP280;64381;0.000;0.000;2022-11-06T15:15:32;95049.66;;;19.95
75773;BMP280;64381;0.000;0.000;2022-11-06T15:17:58;95043.72;;;19.98
75773;BMP280;64381;0.000;0.000;2022-11-06T15:20:28;95046.03;;;20.02
75773;BMP280;64381;0.000;0.000;2022-11-06T15:23:28;95040.50;;;20.02
75773;BMP280;64381;0.000;0.000;2022-11-06T15:26:13;95043.28;;;20.02
75773;BMP280;64381;0.000;0.000;2022-11-06T15:28:43;95042.38;;;19.99
75773;BMP280;64381;0.000;0.000;2022-11-06T15:31:16;95038.88;;;19.99
75773;BMP280;64381;0.000;0.000;2022-11-06T15:33:59;95031.91;;;19.63
75773;BMP280;64381;0.000;0.000;2022-11-06T15:36:27;95027.63;;;18.29
75773;BMP280;64381;0.000;0.000;2022-11-06T15:38:53;95027.72;;;17.59
75773;BMP280;64381;0.000;0.000;2022-11-06T15:41:21;95028.50;;;17.37
75773;BMP280;64381;0.000;0.000;2022-11-06T15:43:49;95040.06;;;16.98
75773;BMP280;64381;0.000;0.000;2022-11-06T15:46:19;95047.97;;;17.09
75773;BMP280;64381;0.000;0.000;2022-11-06T15:48:45;95052.16;;;17.70
75773;BMP280;64381;0.000;0.000;2022-11-06T15:51:24;95048.50;;;18.15
75773;BMP280;64381;0.000;0.000;2022-11-06T15:53:50;95051.50;;;18.42
75773;BMP280;64381;0.000;0.000;2022-11-06T15:56:18;95053.78;;;18.61
75773;BMP280;64381;0.000;0.000;2022-11-06T15:58:45;95054.81;;;18.73
75773;BMP280;64381;0.000;0.000;2022-11-06T16:01:10;95052.19;;;18.82
75773;BMP280;64381;0.000;0.000;2022-11-06T16:03:47;95048.81;;;18.91
75773;BMP280;64381;0.000;0.000;2022-11-06T16:06:13;95049.88;;;18.96
75773;BMP280;64381;0.000;0.000;2022-11-06T16:08:39;95050.53;;;19.04
75773;BMP280;64381;0.000;0.000;2022-11-06T16:11:05;95050.31;;;19.10
75773;BMP280;64381;0.000;0.000;2022-11-06T16:13:35;95044.94;;;19.12
75773;BMP280;64381;0.000;0.000;2022-11-06T16:16:01;95041.22;;;19.17
75773;BMP280;64381;0.000;0.000;2022-11-06T16:18:38;95040.09;;;19.20
75773;BMP280;64381;0.000;0.000;2022-11-06T16:21:18;95047.25;;;19.23
75773;BMP280;64381;0.000;0.000;2022-11-06T16:24:02;95047.59;;;19.27
75773;BMP280;64381;0.000;0.000;2022-11-06T16:28:57;95063.63;;;19.28
75773;BMP280;64381;0.000;0.000;2022-11-06T16:31:24;95062.47;;;19.31
75773;BMP280;64381;0.000;0.000;2022-11-06T16:33:57;95056.75;;;19.29
75773;BMP280;64381;0.000;0.000;2022-11-06T16:36:24;95061.19;;;19.32
75773;BMP280;64381;0.000;0.000;2022-11-06T16:38:50;95063.97;;;19.32
75773;BMP280;64381;0.000;0.000;2022-11-06T16:41:17;95062.09;;;19.35
75773;BMP280;64381;0.000;0.000;2022-11-06T16:43:43;95065.56;;;19.35
75773;BMP280;64381;0.000;0.000;2022-11-06T16:46:08;95065.56;;;19.35
75773;BMP280;64381;0.000;0.000;2022-11-06T16:48:36;95065.91;;;19.39